createdAt,value
2018-11-03T00:01:19.332Z,99782.70
2018-11-03T00:03:47.596Z,99775.19
2018-11-03T00:06:15.760Z,99761.14
2018-11-03T00:08:43.986Z,99760.25
2018-11-03T00:11:12.247Z,99763.42
2018-11-03T00:13:40.376Z,99759.95
2018-11-03T00:16:08.565Z,99756.10
2018-11-03T00:18:36.707Z,99753.65
2018-11-03T00:21:05.104Z,99745.94
2018-11-03T00:23:33.398Z,99747.62
2018-11-03T00:26:01.539Z,99744.09
2018-11-03T00:28:29.789Z,99747.36
2018-11-03T00:30:57.936Z,99744.85
2018-11-03T00:33:26.116Z,99746.10
2018-11-03T00:35:54.427Z,99740.52
2018-11-03T00:38:22.712Z,99737.34
2018-11-03T00:40:50.880Z,99741.06
2018-11-03T00:43:19.051Z,99741.41
2018-11-03T00:45:47.243Z,99742.91
2018-11-03T00:48:15.413Z,99745.02
2018-11-03T00:50:43.633Z,99731.24
2018-11-03T00:53:12.136Z,99734.63
2018-11-03T00:55:40.287Z,99735.22
2018-11-03T00:58:08.500Z,99733.47
2018-11-03T01:00:36.691Z,99731.19
2018-11-03T01:03:04.984Z,99730.23
2018-11-03T01:05:33.175Z,99732.36
2018-11-03T01:08:01.359Z,99744.86
2018-11-03T01:10:29.483Z,99744.45
2018-11-03T01:12:57.654Z,99745.80
2018-11-03T01:15:25.898Z,99738.58
2018-11-03T01:17:54.016Z,99738.95
2018-11-03T01:20:22.500Z,99744.98
2018-11-03T01:22:50.609Z,99748.50
2018-11-03T01:25:19.201Z,99744.30
2018-11-03T01:27:48.412Z,99734.45
2018-11-03T01:30:17.227Z,99742.78
2018-11-03T01:32:45.530Z,99750.34
2018-11-03T01:35:13.694Z,99755.88
2018-11-03T01:37:41.815Z,99758.33
2018-11-03T01:40:11.705Z,99754.34
2018-11-03T01:42:40.187Z,99752.55
2018-11-03T01:45:08.539Z,99762.09
2018-11-03T01:47:37.083Z,99758.48
2018-11-03T01:50:07.425Z,99760.72
2018-11-03T01:52:36.525Z,99762.72
2018-11-03T01:55:04.919Z,99757.27
2018-11-03T01:57:33.130Z,99756.80
2018-11-03T02:00:01.443Z,99758.25
2018-11-03T02:02:29.785Z,99761.57
2018-11-03T02:04:58.151Z,99763.11
2018-11-03T02:07:26.331Z,99759.58
2018-11-03T02:09:54.759Z,99761.86
2018-11-03T02:12:23.005Z,99761.48
2018-11-03T02:14:51.442Z,99763.95
2018-11-03T02:17:20.581Z,99765.02
2018-11-03T02:19:48.725Z,99753.33
2018-11-03T02:22:17.000Z,99758.78
2018-11-03T02:24:45.132Z,99751.09
2018-11-03T02:27:13.285Z,99755.81
2018-11-03T02:29:41.435Z,99757.87
2018-11-03T02:32:09.557Z,99758.25
2018-11-03T02:34:37.985Z,99758.17
2018-11-03T02:37:06.127Z,99761.09
2018-11-03T02:39:34.265Z,99762.11
2018-11-03T02:42:02.508Z,99752.11
2018-11-03T02:44:31.175Z,99754.35
2018-11-03T02:46:59.365Z,99752.96
2018-11-03T02:49:27.525Z,99753.20
2018-11-03T02:51:55.755Z,99753.65
2018-11-03T02:54:23.913Z,99752.80
2018-11-03T02:56:52.454Z,99748.55
2018-11-03T02:59:20.584Z,99748.02
2018-11-03T03:01:48.853Z,99736.93
2018-11-03T03:04:17.016Z,99740.25
2018-11-03T03:06:45.332Z,99736.06
2018-11-03T03:09:13.566Z,99734.84
2018-11-03T03:11:41.720Z,99730.05
2018-11-03T03:14:10.160Z,99732.09
2018-11-03T03:16:38.379Z,99737.95
2018-11-03T03:19:06.558Z,99733.54
2018-11-03T03:21:34.702Z,99730.24
2018-11-03T03:24:02.928Z,99736.76
2018-11-03T03:26:31.200Z,99740.09
2018-11-03T03:28:59.443Z,99742.47
2018-11-03T03:31:27.569Z,99744.09
2018-11-03T03:33:55.763Z,99747.55
2018-11-03T03:36:24.328Z,99743.79
2018-11-03T03:38:52.580Z,99746.17
2018-11-03T03:41:20.743Z,99749.81
2018-11-03T03:43:48.937Z,99751.73
2018-11-03T03:46:17.232Z,99752.72
2018-11-03T03:48:45.447Z,99758.71
2018-11-03T03:51:13.687Z,99760.02
2018-11-03T03:53:41.859Z,99759.18
2018-11-03T03:56:09.990Z,99769.83
2018-11-03T03:58:38.123Z,99770.48
2018-11-03T04:01:06.442Z,99770.02
2018-11-03T04:03:34.704Z,99773.16
2018-11-03T04:06:03.091Z,99777.42
2018-11-03T04:08:31.363Z,99768.80
2018-11-03T04:10:59.513Z,99773.70
2018-11-03T04:13:27.805Z,99769.19
2018-11-03T04:15:56.067Z,99767.87
2018-11-03T04:18:24.253Z,99771.72
2018-11-03T04:20:52.462Z,99764.48
2018-11-03T04:23:20.572Z,99764.11
2018-11-03T04:25:48.699Z,99772.02
2018-11-03T04:28:17.132Z,99766.86
2018-11-03T04:30:45.271Z,99760.68
2018-11-03T04:33:13.466Z,99760.23
2018-11-03T04:35:41.853Z,99762.27
2018-11-03T04:38:10.033Z,99768.47
2018-11-03T04:40:38.472Z,99766.48
2018-11-03T04:43:06.883Z,99768.75
2018-11-03T04:45:35.110Z,99765.45
2018-11-03T04:48:03.364Z,99762.41
2018-11-03T04:50:31.696Z,99762.19
2018-11-03T04:52:59.883Z,99764.55
2018-11-03T04:55:28.175Z,99755.98
2018-11-03T04:57:56.367Z,99761.27
2018-11-03T05:00:24.596Z,99753.45
2018-11-03T05:02:52.764Z,99750.05
2018-11-03T05:05:21.024Z,99750.05
2018-11-03T05:07:49.156Z,99748.55
2018-11-03T05:10:17.401Z,99744.73
2018-11-03T05:12:45.759Z,99749.81
2018-11-03T05:15:14.199Z,99746.83
2018-11-03T05:17:42.427Z,99749.53
2018-11-03T05:20:10.628Z,99751.66
2018-11-03T05:22:38.780Z,99757.92
2018-11-03T05:25:07.276Z,99758.54
2018-11-03T05:27:35.535Z,99754.31
2018-11-03T05:30:04.266Z,99753.18
2018-11-03T05:32:32.440Z,99752.39
2018-11-03T05:35:00.902Z,99750.92
2018-11-03T05:37:29.261Z,99749.98
2018-11-03T05:39:57.533Z,99754.84
2018-11-03T05:42:25.741Z,99753.62
2018-11-03T05:44:53.892Z,99759.30
2018-11-03T05:47:22.058Z,99758.08
2018-11-03T05:49:50.292Z,99751.48
2018-11-03T05:52:18.577Z,99753.72
2018-11-03T05:54:46.779Z,99756.63
2018-11-03T05:57:15.017Z,99766.14
2018-11-03T05:59:43.276Z,99761.95
2018-11-03T06:02:11.612Z,99766.82
2018-11-03T06:04:39.832Z,99760.84
2018-11-03T06:07:08.068Z,99762.21
2018-11-03T06:09:36.489Z,99772.00
2018-11-03T06:12:05.133Z,99777.45
2018-11-03T06:14:33.352Z,99768.98
2018-11-03T06:17:01.485Z,99772.06
2018-11-03T06:19:29.716Z,99771.67
2018-11-03T06:21:58.008Z,99766.43
2018-11-03T06:24:26.223Z,99760.93
2018-11-03T06:26:54.367Z,99759.80
2018-11-03T06:29:22.756Z,99754.03
2018-11-03T06:31:50.930Z,99756.44
2018-11-03T06:34:19.188Z,99761.24
2018-11-03T06:36:47.321Z,99762.27
2018-11-03T06:39:15.561Z,99755.47
2018-11-03T06:41:43.841Z,99763.34
2018-11-03T06:44:11.999Z,99765.55
2018-11-03T06:46:40.206Z,99765.09
2018-11-03T06:49:13.518Z,99750.31
2018-11-03T06:51:41.642Z,99755.88
2018-11-03T06:54:10.005Z,99756.63
2018-11-03T06:56:38.316Z,99767.62
2018-11-03T06:59:06.489Z,99768.08
2018-11-03T07:01:34.640Z,99774.22
2018-11-03T07:04:03.184Z,99777.91
2018-11-03T07:06:31.342Z,99778.17
2018-11-03T07:08:59.491Z,99776.83
2018-11-03T07:11:27.705Z,99779.70
2018-11-03T07:13:55.834Z,99778.83
2018-11-03T07:16:23.988Z,99774.33
2018-11-03T07:18:52.415Z,99776.27
2018-11-03T07:21:20.727Z,99776.58
2018-11-03T07:23:48.855Z,99776.52
2018-11-03T07:26:17.189Z,99777.66
2018-11-03T07:28:45.360Z,99772.47
2018-11-03T07:31:13.473Z,99777.99
2018-11-03T07:33:41.789Z,99782.33
2018-11-03T07:36:10.057Z,99781.87
2018-11-03T07:38:38.176Z,99791.45
2018-11-03T07:41:06.661Z,99791.00
2018-11-03T07:43:34.774Z,99779.70
2018-11-03T07:46:03.063Z,99784.52
2018-11-03T07:48:32.178Z,99788.55
2018-11-03T07:51:00.246Z,99795.42
2018-11-03T07:53:28.555Z,99791.56
2018-11-03T07:55:56.699Z,99795.59
2018-11-03T07:58:24.879Z,99784.50
2018-11-03T08:00:53.007Z,99789.64
2018-11-03T08:03:21.299Z,99796.46
2018-11-03T08:05:49.593Z,99787.14
2018-11-03T08:08:17.733Z,99790.40
2018-11-03T08:10:45.871Z,99788.77
2018-11-03T08:13:14.143Z,99783.02
2018-11-03T08:15:42.841Z,99779.78
2018-11-03T08:18:10.833Z,99789.11
2018-11-03T08:20:39.222Z,99781.27
2018-11-03T08:23:07.345Z,99769.22
2018-11-03T08:25:35.697Z,99765.67
2018-11-03T08:28:03.853Z,99767.25
2018-11-03T08:30:32.017Z,99766.53
2018-11-03T08:33:00.251Z,99767.91
2018-11-03T08:35:28.392Z,99769.20
2018-11-03T08:37:56.680Z,99766.05
2018-11-03T08:40:24.796Z,99769.27
2018-11-03T08:42:53.032Z,99770.24
2018-11-03T08:45:21.207Z,99772.73
2018-11-03T08:47:49.528Z,99772.44
2018-11-03T08:50:17.676Z,99764.67
2018-11-03T08:52:45.913Z,99770.32
2018-11-03T08:55:14.451Z,99765.76
2018-11-03T08:57:43.060Z,99765.20
2018-11-03T09:00:13.342Z,99755.23
2018-11-03T09:02:41.872Z,99759.45
2018-11-03T09:05:10.727Z,99752.42
2018-11-03T09:07:39.161Z,99747.08
2018-11-03T09:10:09.270Z,99748.02
2018-11-03T09:12:37.545Z,99746.04
2018-11-03T09:15:06.833Z,99737.59
2018-11-03T09:17:35.188Z,99746.12
2018-11-03T09:20:03.334Z,99747.30
2018-11-03T09:22:31.569Z,99750.70
2018-11-03T09:24:59.679Z,99743.36
2018-11-03T09:27:27.968Z,99737.28
2018-11-03T09:29:56.259Z,99734.98
2018-11-03T09:32:24.403Z,99738.91
2018-11-03T09:34:52.719Z,99742.91
2018-11-03T09:37:21.043Z,99754.95
2018-11-03T09:39:49.165Z,99746.07
2018-11-03T09:42:17.532Z,99747.63
2018-11-03T09:44:46.110Z,99750.30
2018-11-03T09:47:14.443Z,99742.67
2018-11-03T09:49:42.952Z,99740.88
2018-11-03T09:52:11.296Z,99729.41
2018-11-03T09:54:39.649Z,99732.44
2018-11-03T09:57:07.811Z,99731.84
2018-11-03T09:59:36.061Z,99732.44
2018-11-03T10:02:04.274Z,99734.52
2018-11-03T10:04:32.496Z,99727.25
2018-11-03T10:07:00.711Z,99725.89
2018-11-03T10:09:28.927Z,99727.03
2018-11-03T10:11:57.085Z,99727.53
2018-11-03T10:14:25.556Z,99722.88
2018-11-03T10:16:53.872Z,99725.30
2018-11-03T10:19:22.367Z,99720.29
2018-11-03T10:21:50.948Z,99720.86
2018-11-03T10:24:19.077Z,99723.59
2018-11-03T10:26:47.352Z,99730.62
2018-11-03T10:29:15.525Z,99722.98
2018-11-03T10:31:43.860Z,99730.45
2018-11-03T10:34:12.345Z,99728.60
2018-11-03T10:36:40.878Z,99726.44
2018-11-03T10:39:11.065Z,99721.71
2018-11-03T10:41:39.665Z,99713.92
2018-11-03T10:44:08.081Z,99707.36
2018-11-03T10:46:37.667Z,99697.45
2018-11-03T10:49:05.883Z,99689.13
2018-11-03T10:51:34.084Z,99700.52
2018-11-03T10:54:02.391Z,99695.33
2018-11-03T10:56:30.715Z,99700.09
2018-11-03T10:58:59.040Z,99699.31
2018-11-03T11:01:32.597Z,99690.95
2018-11-03T11:04:06.341Z,99687.64
2018-11-03T11:06:39.931Z,99685.69
2018-11-03T11:09:13.597Z,99684.98
2018-11-03T11:11:47.359Z,99673.70
2018-11-03T11:14:16.712Z,99667.31
2018-11-03T11:16:45.045Z,99666.48
2018-11-03T11:19:13.391Z,99662.47
2018-11-03T11:21:41.752Z,99655.30
2018-11-03T11:24:10.221Z,99655.08
2018-11-03T11:26:38.660Z,99651.61
2018-11-03T11:29:06.844Z,99652.64
2018-11-03T11:31:35.132Z,99653.63
2018-11-03T11:34:03.192Z,99652.48
2018-11-03T11:36:31.625Z,99658.05
2018-11-03T11:39:00.033Z,99653.91
2018-11-03T11:41:28.431Z,99644.39
2018-11-03T11:43:56.587Z,99639.08
2018-11-03T11:46:24.820Z,99638.49
2018-11-03T11:48:53.209Z,99627.87
2018-11-03T11:51:21.352Z,99628.39
2018-11-03T11:53:49.652Z,99628.81
2018-11-03T11:56:17.775Z,99618.35
2018-11-03T11:58:45.963Z,99608.73
2018-11-03T12:01:14.327Z,99606.30
2018-11-03T12:03:42.450Z,99609.56
2018-11-03T12:06:10.691Z,99600.17
2018-11-03T12:08:39.922Z,99594.12
2018-11-03T12:11:08.252Z,99598.36
2018-11-03T12:13:36.509Z,99596.34
2018-11-03T12:16:04.884Z,99592.83
2018-11-03T12:18:33.632Z,99589.99
2018-11-03T12:21:02.285Z,99584.45
2018-11-03T12:23:30.630Z,99577.43
2018-11-03T12:25:59.256Z,99577.02
2018-11-03T12:28:27.736Z,99581.97
2018-11-03T12:30:56.177Z,99576.64
2018-11-03T12:33:24.555Z,99571.31
2018-11-03T12:35:53.232Z,99565.08
2018-11-03T12:38:21.934Z,99564.08
2018-11-03T12:40:50.234Z,99555.20
2018-11-03T12:43:18.404Z,99543.56
2018-11-03T12:45:46.620Z,99541.58
2018-11-03T12:48:15.010Z,99547.59
2018-11-03T12:50:43.091Z,99543.91
2018-11-03T12:53:11.571Z,99535.41
2018-11-03T12:55:39.981Z,99526.08
2018-11-03T12:58:08.281Z,99524.77
2018-11-03T13:00:36.871Z,99523.67
2018-11-03T13:03:06.127Z,99524.41
2018-11-03T13:05:34.532Z,99514.27
2018-11-03T13:08:02.896Z,99516.98
2018-11-03T13:10:31.329Z,99515.95
2018-11-03T13:12:59.839Z,99511.02
2018-11-03T13:15:28.625Z,99505.72
2018-11-03T13:17:57.395Z,99499.52
2018-11-03T13:20:25.620Z,99494.33
2018-11-03T13:22:53.842Z,99488.63
2018-11-03T13:25:22.035Z,99495.55
2018-11-03T13:27:50.206Z,99494.11
2018-11-03T13:30:18.420Z,99496.27
2018-11-03T13:32:46.532Z,99489.18
2018-11-03T13:35:15.006Z,99494.09
2018-11-03T13:37:43.147Z,99485.83
2018-11-03T13:40:12.740Z,99489.23
2018-11-03T13:42:41.175Z,99484.15
2018-11-03T13:45:09.894Z,99482.91
2018-11-03T13:47:39.026Z,99479.80
2018-11-03T13:50:12.980Z,99480.05
2018-11-03T13:52:42.539Z,99472.60
2018-11-03T13:55:10.967Z,99473.25
2018-11-03T13:57:39.528Z,99470.27
2018-11-03T14:00:10.117Z,99474.80
2018-11-03T14:02:38.269Z,99475.02
2018-11-03T14:05:07.180Z,99473.81
2018-11-03T14:07:35.419Z,99473.78
2018-11-03T14:10:03.735Z,99479.05
2018-11-03T14:12:32.035Z,99487.12
2018-11-03T14:15:00.312Z,99483.17
2018-11-03T14:17:28.762Z,99487.39
2018-11-03T14:19:57.028Z,99484.67
2018-11-03T14:22:25.302Z,99480.42
2018-11-03T14:24:53.452Z,99478.05
2018-11-03T14:27:21.696Z,99472.46
2018-11-03T14:29:50.028Z,99470.08
2018-11-03T14:32:18.333Z,99471.66
2018-11-03T14:34:46.615Z,99471.39
2018-11-03T14:37:15.156Z,99471.35
2018-11-03T14:39:43.324Z,99474.77
2018-11-03T14:42:11.479Z,99470.34
2018-11-03T14:44:39.816Z,99468.91
2018-11-03T14:47:08.160Z,99468.55
2018-11-03T14:49:36.358Z,99468.41
2018-11-03T14:52:04.916Z,99464.46
2018-11-03T14:54:33.178Z,99459.33
2018-11-03T14:57:01.431Z,99463.75
2018-11-03T14:59:29.652Z,99465.03
2018-11-03T15:01:57.860Z,99456.66
2018-11-03T15:04:26.087Z,99456.41
2018-11-03T15:06:54.227Z,99453.52
2018-11-03T15:09:22.348Z,99447.64
2018-11-03T15:11:50.632Z,99447.44
2018-11-03T15:14:18.886Z,99448.14
2018-11-03T15:16:47.051Z,99448.25
2018-11-03T15:19:15.200Z,99450.98
2018-11-03T15:21:43.411Z,99445.22
2018-11-03T15:24:11.711Z,99448.18
2018-11-03T15:26:39.904Z,99450.95
2018-11-03T15:29:08.051Z,99446.86
2018-11-03T15:31:36.188Z,99444.34
2018-11-03T15:34:04.356Z,99437.27
2018-11-03T15:36:32.666Z,99443.97
2018-11-03T15:39:00.942Z,99438.91
2018-11-03T15:41:29.240Z,99449.56
2018-11-03T15:43:57.332Z,99450.26
2018-11-03T15:46:25.605Z,99453.13
2018-11-03T15:48:53.817Z,99457.78
2018-11-03T15:51:22.273Z,99452.98
2018-11-03T15:53:50.562Z,99453.71
2018-11-03T15:56:18.849Z,99442.69
2018-11-03T15:58:47.074Z,99445.20
2018-11-03T16:01:15.592Z,99442.03
2018-11-03T16:03:43.783Z,99437.86
2018-11-03T16:06:12.069Z,99429.72
2018-11-03T16:08:40.200Z,99435.11
2018-11-03T16:11:08.594Z,99430.08
2018-11-03T16:13:36.873Z,99436.39
2018-11-03T16:16:05.247Z,99439.60
2018-11-03T16:18:33.551Z,99434.61
2018-11-03T16:21:01.753Z,99436.50
2018-11-03T16:23:30.032Z,99430.97
2018-11-03T16:25:58.197Z,99433.98
2018-11-03T16:28:26.549Z,99427.98
2018-11-03T16:30:54.693Z,99414.83
2018-11-03T16:33:22.951Z,99423.66
2018-11-03T16:35:51.167Z,99425.71
2018-11-03T16:38:19.791Z,99421.03
2018-11-03T16:40:48.020Z,99421.03
2018-11-03T16:43:16.221Z,99427.03
2018-11-03T16:45:44.486Z,99424.16
2018-11-03T16:48:12.691Z,99429.89
2018-11-03T16:50:40.992Z,99431.20
2018-11-03T16:53:09.229Z,99436.50
2018-11-03T16:55:37.570Z,99435.27
2018-11-03T16:58:05.949Z,99432.05
2018-11-03T17:00:34.135Z,99431.94
2018-11-03T17:03:02.316Z,99432.52
2018-11-03T17:05:30.470Z,99434.89
2018-11-03T17:07:58.723Z,99437.41
2018-11-03T17:10:27.037Z,99439.22
2018-11-03T17:12:55.374Z,99436.09
2018-11-03T17:15:23.518Z,99427.98
2018-11-03T17:17:51.762Z,99436.44
2018-11-03T17:20:19.925Z,99436.05
2018-11-03T17:22:48.132Z,99426.38
2018-11-03T17:25:19.467Z,99423.86
2018-11-03T17:27:47.536Z,99416.90
2018-11-03T17:30:16.228Z,99417.28
2018-11-03T17:32:45.130Z,99410.90
2018-11-03T17:35:13.616Z,99408.27
2018-11-03T17:37:41.905Z,99407.66
2018-11-03T17:40:10.625Z,99403.36
2018-11-03T17:42:39.136Z,99401.08
2018-11-03T17:45:08.575Z,99399.03
2018-11-03T17:47:36.919Z,99394.38
2018-11-03T17:50:05.959Z,99397.94
2018-11-03T17:52:34.148Z,99399.64
2018-11-03T17:55:02.469Z,99403.55
2018-11-03T17:57:30.744Z,99403.44
2018-11-03T17:59:59.167Z,99402.70
2018-11-03T18:02:27.400Z,99400.66
2018-11-03T18:04:55.729Z,99405.18
2018-11-03T18:07:23.950Z,99404.95
2018-11-03T18:09:52.158Z,99401.13
2018-11-03T18:12:20.355Z,99408.16
2018-11-03T18:14:48.487Z,99402.55
2018-11-03T18:17:16.679Z,99401.13
2018-11-03T18:19:44.979Z,99404.22
2018-11-03T18:22:13.108Z,99396.32
2018-11-03T18:24:41.260Z,99394.30
2018-11-03T18:27:16.213Z,99386.77
2018-11-03T18:29:44.580Z,99385.45
2018-11-03T18:32:12.756Z,99384.14
2018-11-03T18:34:41.167Z,99384.87
2018-11-03T18:37:09.396Z,99378.30
2018-11-03T18:39:37.624Z,99378.88
2018-11-03T18:42:05.974Z,99383.91
2018-11-03T18:44:34.130Z,99376.71
2018-11-03T18:47:02.340Z,99377.56
2018-11-03T18:49:30.631Z,99374.89
2018-11-03T18:51:59.143Z,99369.75
2018-11-03T18:54:27.303Z,99371.80
2018-11-03T18:56:56.261Z,99375.36
2018-11-03T18:59:24.620Z,99377.64
2018-11-03T19:01:52.940Z,99378.57
2018-11-03T19:04:21.113Z,99374.42
2018-11-03T19:06:49.344Z,99382.78
2018-11-03T19:09:17.706Z,99382.67
2018-11-03T19:11:45.784Z,99372.61
2018-11-03T19:14:14.106Z,99368.82
2018-11-03T19:16:42.415Z,99361.63
2018-11-03T19:19:10.627Z,99351.34
2018-11-03T19:21:39.084Z,99348.74
2018-11-03T19:24:07.546Z,99345.53
2018-11-03T19:26:35.651Z,99346.55
2018-11-03T19:29:04.035Z,99350.38
2018-11-03T19:31:32.347Z,99353.00
2018-11-03T19:34:00.567Z,99349.44
2018-11-03T19:36:28.790Z,99355.17
2018-11-03T19:38:57.811Z,99355.40
2018-11-03T19:41:26.023Z,99351.92
2018-11-03T19:43:54.147Z,99352.50
2018-11-03T19:46:22.395Z,99347.01
2018-11-03T19:48:50.813Z,99340.44
2018-11-03T19:51:19.345Z,99340.90
2018-11-03T19:53:47.576Z,99337.16
2018-11-03T19:56:15.812Z,99334.05
2018-11-03T19:58:43.972Z,99325.47
2018-11-03T20:01:12.175Z,99318.05
2018-11-03T20:03:40.512Z,99326.05
2018-11-03T20:06:08.957Z,99318.78
2018-11-03T20:08:37.091Z,99312.78
2018-11-03T20:11:05.242Z,99317.23
2018-11-03T20:13:33.430Z,99312.78
2018-11-03T20:16:01.745Z,99306.45
2018-11-03T20:18:29.948Z,99309.92
2018-11-03T20:20:58.740Z,99309.08
2018-11-03T20:23:27.000Z,99310.73
2018-11-03T20:25:55.265Z,99307.37
2018-11-03T20:28:23.480Z,99302.62
2018-11-03T20:30:51.728Z,99303.67
2018-11-03T20:33:19.940Z,99310.70
2018-11-03T20:35:48.120Z,99307.34
2018-11-03T20:38:16.409Z,99305.68
2018-11-03T20:40:44.682Z,99301.47
2018-11-03T20:43:13.016Z,99300.16
2018-11-03T20:45:41.207Z,99297.09
2018-11-03T20:48:09.663Z,99298.06
2018-11-03T20:50:37.911Z,99295.39
2018-11-03T20:53:06.161Z,99291.84
2018-11-03T20:55:34.461Z,99289.38
2018-11-03T20:58:02.608Z,99288.03
2018-11-03T21:00:30.759Z,99284.36
2018-11-03T21:02:59.904Z,99280.44
2018-11-03T21:05:28.059Z,99282.78
2018-11-03T21:07:56.283Z,99277.34
2018-11-03T21:10:24.508Z,99274.59
2018-11-03T21:12:52.852Z,99281.05
2018-11-03T21:15:21.541Z,99275.06
2018-11-03T21:17:49.863Z,99273.12
2018-11-03T21:20:18.287Z,99279.94
2018-11-03T21:22:46.530Z,99270.09
2018-11-03T21:25:14.704Z,99274.51
2018-11-03T21:27:42.871Z,99267.70
2018-11-03T21:30:11.869Z,99269.52
2018-11-03T21:32:40.498Z,99265.12
2018-11-03T21:35:08.663Z,99259.48
2018-11-03T21:37:37.540Z,99260.09
2018-11-03T21:40:06.235Z,99246.45
2018-11-03T21:42:34.576Z,99246.70
2018-11-03T21:45:03.024Z,99247.04
2018-11-03T21:47:31.219Z,99246.43
2018-11-03T21:49:59.540Z,99248.13
2018-11-03T21:52:27.711Z,99235.62
2018-11-03T21:54:56.004Z,99239.33
2018-11-03T21:57:24.336Z,99237.87
2018-11-03T22:02:41.834Z,99233.22
2018-11-03T22:05:11.667Z,99232.93
2018-11-03T22:07:40.139Z,99232.08
2018-11-03T22:10:08.836Z,99224.43
2018-11-03T22:12:37.055Z,99221.19
2018-11-03T22:15:05.840Z,99220.14
2018-11-03T22:17:34.091Z,99219.67
2018-11-03T22:20:02.507Z,99218.47
2018-11-03T22:22:30.735Z,99213.06
2018-11-03T22:24:58.987Z,99211.64
2018-11-03T22:27:27.786Z,99208.42
2018-11-03T22:29:56.016Z,99215.34
2018-11-03T22:32:24.145Z,99209.16
2018-11-03T22:34:52.410Z,99212.83
2018-11-03T22:37:20.550Z,99212.69
2018-11-03T22:39:48.941Z,99210.44
2018-11-03T22:42:17.257Z,99205.77
2018-11-03T22:44:45.355Z,99209.56
2018-11-03T22:47:13.524Z,99199.78
2018-11-03T22:49:41.699Z,99193.56
2018-11-03T22:52:09.993Z,99191.40
2018-11-03T22:54:38.976Z,99183.53
2018-11-03T22:57:07.394Z,99184.42
2018-11-03T22:59:35.763Z,99180.27
2018-11-03T23:02:04.193Z,99175.57
2018-11-03T23:04:33.207Z,99177.33
2018-11-03T23:07:01.624Z,99174.09
2018-11-03T23:09:29.878Z,99174.05
2018-11-03T23:11:58.155Z,99171.20
2018-11-03T23:14:26.373Z,99171.22
2018-11-03T23:16:54.757Z,99178.48
2018-11-03T23:19:23.387Z,99174.11
2018-11-03T23:21:51.853Z,99172.82
2018-11-03T23:24:20.355Z,99172.66
2018-11-03T23:26:48.839Z,99166.48
2018-11-03T23:29:17.189Z,99170.80
2018-11-03T23:31:45.424Z,99168.45
2018-11-03T23:34:13.614Z,99168.55
2018-11-03T23:36:41.844Z,99164.02
2018-11-03T23:39:11.404Z,99164.84
2018-11-03T23:41:39.708Z,99162.86
2018-11-03T23:44:08.008Z,99156.47
2018-11-03T23:46:36.492Z,99155.42
2018-11-03T23:49:04.672Z,99146.61
2018-11-03T23:51:33.279Z,99140.13
2018-11-03T23:54:01.465Z,99141.97
2018-11-03T23:56:30.060Z,99137.28
2018-11-03T23:58:58.303Z,99132.85
